sensor_id;sensor_type;location;lat;lon;timestamp;P1;durP1;ratioP1;P2;durP2;ratioP2
44098;SDS011;29762;50.086;14.364;2023-01-29T00:02:08;5.80;;;2.45;;
44098;SDS011;29762;50.086;14.364;2023-01-29T00:07:28;4.88;;;2.20;;
44098;SDS011;29762;50.086;14.364;2023-01-29T00:12:48;4.25;;;1.98;;
44098;SDS011;29762;50.086;14.364;2023-01-29T00:18:10;4.72;;;2.20;;
44098;SDS011;29762;50.086;14.364;2023-01-29T00:23:29;5.85;;;2.00;;
44098;SDS011;29762;50.086;14.364;2023-01-29T00:28:48;6.18;;;2.35;;
44098;SDS011;29762;50.086;14.364;2023-01-29T00:34:08;4.95;;;2.58;;
44098;SDS011;29762;50.086;14.364;2023-01-29T00:39:27;5.22;;;2.55;;
44098;SDS011;29762;50.086;14.364;2023-01-29T00:44:57;5.20;;;2.80;;
44098;SDS011;29762;50.086;14.364;2023-01-29T00:50:16;5.38;;;2.83;;
44098;SDS011;29762;50.086;14.364;2023-01-29T00:55:36;5.25;;;2.30;;
44098;SDS011;29762;50.086;14.364;2023-01-29T01:00:57;4.15;;;2.10;;
44098;SDS011;29762;50.086;14.364;2023-01-29T01:06:16;4.38;;;2.20;;
44098;SDS011;29762;50.086;14.364;2023-01-29T01:11:36;5.30;;;2.17;;
44098;SDS011;29762;50.086;14.364;2023-01-29T01:16:55;4.95;;;2.03;;
44098;SDS011;29762;50.086;14.364;2023-01-29T01:22:16;4.47;;;2.20;;
44098;SDS011;29762;50.086;14.364;2023-01-29T01:27:36;4.68;;;2.28;;
44098;SDS011;29762;50.086;14.364;2023-01-29T01:32:59;4.28;;;2.10;;
44098;SDS011;29762;50.086;14.364;2023-01-29T01:38:18;3.78;;;1.98;;
44098;SDS011;29762;50.086;14.364;2023-01-29T01:43:51;3.17;;;1.92;;
44098;SDS011;29762;50.086;14.364;2023-01-29T01:49:13;3.85;;;1.77;;
44098;SDS011;29762;50.086;14.364;2023-01-29T01:54:34;3.83;;;1.80;;
44098;SDS011;29762;50.086;14.364;2023-01-29T01:59:55;3.20;;;1.60;;
44098;SDS011;29762;50.086;14.364;2023-01-29T02:05:17;3.47;;;1.63;;
44098;SDS011;29762;50.086;14.364;2023-01-29T02:10:55;2.40;;;1.50;;
44098;SDS011;29762;50.086;14.364;2023-01-29T02:16:16;2.95;;;1.58;;
44098;SDS011;29762;50.086;14.364;2023-01-29T02:21:40;2.78;;;1.75;;
44098;SDS011;29762;50.086;14.364;2023-01-29T02:27:11;3.33;;;1.75;;
44098;SDS011;29762;50.086;14.364;2023-01-29T02:32:36;2.85;;;1.60;;
44098;SDS011;29762;50.086;14.364;2023-01-29T02:38:10;2.65;;;1.50;;
44098;SDS011;29762;50.086;14.364;2023-01-29T02:49:09;2.40;;;1.45;;
44098;SDS011;29762;50.086;14.364;2023-01-29T02:54:38;3.50;;;1.50;;
44098;SDS011;29762;50.086;14.364;2023-01-29T03:05:39;2.35;;;1.48;;
44098;SDS011;29762;50.086;14.364;2023-01-29T03:11:03;3.08;;;1.45;;
44098;SDS011;29762;50.086;14.364;2023-01-29T03:16:32;3.22;;;1.52;;
44098;SDS011;29762;50.086;14.364;2023-01-29T03:21:55;2.42;;;1.50;;
44098;SDS011;29762;50.086;14.364;2023-01-29T03:27:20;3.40;;;1.80;;
44098;SDS011;29762;50.086;14.364;2023-01-29T03:33:02;1.67;;;1.42;;
44098;SDS011;29762;50.086;14.364;2023-01-29T03:38:24;2.70;;;1.63;;
44098;SDS011;29762;50.086;14.364;2023-01-29T03:43:54;1.73;;;1.33;;
44098;SDS011;29762;50.086;14.364;2023-01-29T03:49:31;2.17;;;1.45;;
44098;SDS011;29762;50.086;14.364;2023-01-29T03:54:58;2.88;;;1.60;;
44098;SDS011;29762;50.086;14.364;2023-01-29T04:00:37;2.63;;;1.60;;
44098;SDS011;29762;50.086;14.364;2023-01-29T04:11:43;1.80;;;1.20;;
44098;SDS011;29762;50.086;14.364;2023-01-29T04:17:11;2.13;;;1.40;;
44098;SDS011;29762;50.086;14.364;2023-01-29T04:22:45;2.05;;;1.33;;
44098;SDS011;29762;50.086;14.364;2023-01-29T04:28:18;2.08;;;1.42;;
44098;SDS011;29762;50.086;14.364;2023-01-29T04:39:22;1.80;;;1.30;;
44098;SDS011;29762;50.086;14.364;2023-01-29T04:44:57;1.10;;;1.00;;
44098;SDS011;29762;50.086;14.364;2023-01-29T04:50:40;2.30;;;1.45;;
44098;SDS011;29762;50.086;14.364;2023-01-29T05:01:43;2.90;;;1.30;;
44098;SDS011;29762;50.086;14.364;2023-01-29T05:07:04;2.35;;;1.33;;
44098;SDS011;29762;50.086;14.364;2023-01-29T05:12:26;2.50;;;1.35;;
44098;SDS011;29762;50.086;14.364;2023-01-29T05:17:47;1.50;;;1.25;;
44098;SDS011;29762;50.086;14.364;2023-01-29T05:23:16;1.63;;;1.20;;
44098;SDS011;29762;50.086;14.364;2023-01-29T05:28:39;2.00;;;1.13;;
44098;SDS011;29762;50.086;14.364;2023-01-29T05:33:58;2.42;;;1.50;;
44098;SDS011;29762;50.086;14.364;2023-01-29T05:39:18;2.10;;;1.40;;
44098;SDS011;29762;50.086;14.364;2023-01-29T05:44:38;1.05;;;0.93;;
44098;SDS011;29762;50.086;14.364;2023-01-29T05:49:57;2.03;;;1.20;;
44098;SDS011;29762;50.086;14.364;2023-01-29T05:55:17;1.67;;;1.20;;
44098;SDS011;29762;50.086;14.364;2023-01-29T06:00:36;1.60;;;1.10;;
44098;SDS011;29762;50.086;14.364;2023-01-29T06:05:56;1.88;;;1.20;;
44098;SDS011;29762;50.086;14.364;2023-01-29T06:11:15;1.52;;;1.05;;
44098;SDS011;29762;50.086;14.364;2023-01-29T06:16:36;1.35;;;1.10;;
44098;SDS011;29762;50.086;14.364;2023-01-29T06:21:55;1.58;;;1.38;;
44098;SDS011;29762;50.086;14.364;2023-01-29T06:27:15;1.35;;;1.25;;
44098;SDS011;29762;50.086;14.364;2023-01-29T06:32:34;1.52;;;1.20;;
44098;SDS011;29762;50.086;14.364;2023-01-29T06:37:53;1.95;;;1.40;;
44098;SDS011;29762;50.086;14.364;2023-01-29T06:43:14;1.40;;;1.13;;
44098;SDS011;29762;50.086;14.364;2023-01-29T06:48:34;1.25;;;1.08;;
44098;SDS011;29762;50.086;14.364;2023-01-29T06:53:53;1.08;;;0.98;;
44098;SDS011;29762;50.086;14.364;2023-01-29T06:59:14;1.45;;;1.20;;
44098;SDS011;29762;50.086;14.364;2023-01-29T07:04:34;1.20;;;1.10;;
44098;SDS011;29762;50.086;14.364;2023-01-29T07:09:54;1.30;;;1.20;;
44098;SDS011;29762;50.086;14.364;2023-01-29T07:15:14;1.35;;;1.20;;
44098;SDS011;29762;50.086;14.364;2023-01-29T07:20:39;1.02;;;0.93;;
44098;SDS011;29762;50.086;14.364;2023-01-29T07:26:03;1.40;;;1.17;;
44098;SDS011;29762;50.086;14.364;2023-01-29T07:31:23;1.58;;;1.30;;
44098;SDS011;29762;50.086;14.364;2023-01-29T07:36:42;1.25;;;1.02;;
44098;SDS011;29762;50.086;14.364;2023-01-29T07:42:01;1.52;;;1.23;;
44098;SDS011;29762;50.086;14.364;2023-01-29T07:47:21;1.33;;;0.95;;
44098;SDS011;29762;50.086;14.364;2023-01-29T07:52:41;1.58;;;0.98;;
44098;SDS011;29762;50.086;14.364;2023-01-29T07:58:01;1.00;;;1.00;;
44098;SDS011;29762;50.086;14.364;2023-01-29T08:03:21;1.13;;;0.90;;
44098;SDS011;29762;50.086;14.364;2023-01-29T08:08:40;35.72;;;20.52;;
44098;SDS011;29762;50.086;14.364;2023-01-29T08:14:00;16.45;;;9.95;;
44098;SDS011;29762;50.086;14.364;2023-01-29T08:19:19;15.25;;;8.60;;
44098;SDS011;29762;50.086;14.364;2023-01-29T08:24:38;12.32;;;7.38;;
44098;SDS011;29762;50.086;14.364;2023-01-29T08:29:58;9.48;;;6.60;;
44098;SDS011;29762;50.086;14.364;2023-01-29T08:35:17;10.48;;;6.50;;
44098;SDS011;29762;50.086;14.364;2023-01-29T08:40:36;10.32;;;6.13;;
44098;SDS011;29762;50.086;14.364;2023-01-29T08:45:56;7.63;;;5.72;;
44098;SDS011;29762;50.086;14.364;2023-01-29T08:51:15;7.85;;;5.53;;
44098;SDS011;29762;50.086;14.364;2023-01-29T08:56:35;8.38;;;5.32;;
44098;SDS011;29762;50.086;14.364;2023-01-29T09:01:54;6.38;;;4.72;;
44098;SDS011;29762;50.086;14.364;2023-01-29T09:07:13;8.07;;;5.03;;
44098;SDS011;29762;50.086;14.364;2023-01-29T09:12:33;7.20;;;4.80;;
44098;SDS011;29762;50.086;14.364;2023-01-29T09:17:52;6.38;;;4.70;;
44098;SDS011;29762;50.086;14.364;2023-01-29T09:23:11;7.15;;;4.95;;
44098;SDS011;29762;50.086;14.364;2023-01-29T09:28:31;6.85;;;4.60;;
44098;SDS011;29762;50.086;14.364;2023-01-29T09:33:50;6.90;;;4.88;;
44098;SDS011;29762;50.086;14.364;2023-01-29T09:39:10;5.53;;;4.20;;
44098;SDS011;29762;50.086;14.364;2023-01-29T09:44:47;6.07;;;4.03;;
44098;SDS011;29762;50.086;14.364;2023-01-29T09:50:16;7.70;;;4.35;;
44098;SDS011;29762;50.086;14.364;2023-01-29T09:55:48;6.60;;;4.18;;
44098;SDS011;29762;50.086;14.364;2023-01-29T10:01:31;6.18;;;4.07;;
44098;SDS011;29762;50.086;14.364;2023-01-29T10:07:12;6.20;;;4.10;;
44098;SDS011;29762;50.086;14.364;2023-01-29T10:29:57;4.88;;;3.40;;
44098;SDS011;29762;50.086;14.364;2023-01-29T10:35:21;5.00;;;3.42;;
44098;SDS011;29762;50.086;14.364;2023-01-29T10:40:46;5.95;;;3.30;;
44098;SDS011;29762;50.086;14.364;2023-01-29T10:46:15;4.30;;;3.30;;
44098;SDS011;29762;50.086;14.364;2023-01-29T10:52:16;4.97;;;2.88;;
44098;SDS011;29762;50.086;14.364;2023-01-29T11:03:17;3.30;;;3.00;;
44098;SDS011;29762;50.086;14.364;2023-01-29T11:14:48;4.72;;;3.40;;
44098;SDS011;29762;50.086;14.364;2023-01-29T11:20:29;5.95;;;3.25;;
44098;SDS011;29762;50.086;14.364;2023-01-29T11:25:53;5.00;;;3.08;;
44098;SDS011;29762;50.086;14.364;2023-01-29T11:31:28;6.15;;;2.92;;
44098;SDS011;29762;50.086;14.364;2023-01-29T11:36:57;4.68;;;2.70;;
44098;SDS011;29762;50.086;14.364;2023-01-29T11:42:21;7.10;;;3.42;;
44098;SDS011;29762;50.086;14.364;2023-01-29T11:47:41;3.53;;;2.83;;
44098;SDS011;29762;50.086;14.364;2023-01-29T11:53:01;3.33;;;2.67;;
44098;SDS011;29762;50.086;14.364;2023-01-29T11:58:28;3.40;;;2.60;;
44098;SDS011;29762;50.086;14.364;2023-01-29T12:03:50;3.08;;;2.53;;
44098;SDS011;29762;50.086;14.364;2023-01-29T12:09:15;2.85;;;2.50;;
44098;SDS011;29762;50.086;14.364;2023-01-29T12:14:37;3.30;;;2.40;;
44098;SDS011;29762;50.086;14.364;2023-01-29T12:20:02;3.58;;;2.50;;
44098;SDS011;29762;50.086;14.364;2023-01-29T12:25:34;3.30;;;2.63;;
44098;SDS011;29762;50.086;14.364;2023-01-29T12:31:07;3.55;;;2.17;;
44098;SDS011;29762;50.086;14.364;2023-01-29T12:36:40;3.55;;;2.25;;
44098;SDS011;29762;50.086;14.364;2023-01-29T12:42:13;3.95;;;2.25;;
44098;SDS011;29762;50.086;14.364;2023-01-29T12:47:57;3.08;;;2.28;;
44098;SDS011;29762;50.086;14.364;2023-01-29T12:53:50;2.25;;;1.90;;
44098;SDS011;29762;50.086;14.364;2023-01-29T12:59:19;3.08;;;2.00;;
44098;SDS011;29762;50.086;14.364;2023-01-29T13:04:46;2.35;;;1.90;;
44098;SDS011;29762;50.086;14.364;2023-01-29T13:10:11;2.55;;;2.10;;
44098;SDS011;29762;50.086;14.364;2023-01-29T13:15:37;2.53;;;2.22;;
44098;SDS011;29762;50.086;14.364;2023-01-29T13:20:58;2.67;;;1.90;;
44098;SDS011;29762;50.086;14.364;2023-01-29T13:26:18;2.75;;;2.13;;
44098;SDS011;29762;50.086;14.364;2023-01-29T13:31:38;2.40;;;2.10;;
44098;SDS011;29762;50.086;14.364;2023-01-29T13:37:00;2.88;;;1.80;;
44098;SDS011;29762;50.086;14.364;2023-01-29T13:48:16;2.47;;;1.88;;
44098;SDS011;29762;50.086;14.364;2023-01-29T13:53:41;2.28;;;1.98;;
44098;SDS011;29762;50.086;14.364;2023-01-29T13:59:02;3.45;;;1.73;;
44098;SDS011;29762;50.086;14.364;2023-01-29T14:04:27;2.30;;;1.90;;
44098;SDS011;29762;50.086;14.364;2023-01-29T14:20:39;2.40;;;2.00;;
44098;SDS011;29762;50.086;14.364;2023-01-29T14:42:56;1.55;;;1.45;;
44098;SDS011;29762;50.086;14.364;2023-01-29T14:48:38;2.30;;;1.80;;
44098;SDS011;29762;50.086;14.364;2023-01-29T14:54:26;2.08;;;1.83;;
44098;SDS011;29762;50.086;14.364;2023-01-29T14:59:48;2.08;;;1.60;;
44098;SDS011;29762;50.086;14.364;2023-01-29T15:05:15;3.25;;;2.20;;
44098;SDS011;29762;50.086;14.364;2023-01-29T15:10:44;2.20;;;1.77;;
44098;SDS011;29762;50.086;14.364;2023-01-29T15:16:34;2.05;;;1.73;;
44098;SDS011;29762;50.086;14.364;2023-01-29T15:22:08;2.28;;;1.88;;
44098;SDS011;29762;50.086;14.364;2023-01-29T15:27:31;1.80;;;1.70;;
44098;SDS011;29762;50.086;14.364;2023-01-29T15:32:52;2.00;;;1.80;;
44098;SDS011;29762;50.086;14.364;2023-01-29T15:38:18;2.00;;;1.80;;
44098;SDS011;29762;50.086;14.364;2023-01-29T15:43:41;2.47;;;1.88;;
44098;SDS011;29762;50.086;14.364;2023-01-29T15:49:06;1.88;;;1.67;;
44098;SDS011;29762;50.086;14.364;2023-01-29T15:54:29;1.95;;;1.75;;
44098;SDS011;29762;50.086;14.364;2023-01-29T15:59:49;2.15;;;1.50;;
44098;SDS011;29762;50.086;14.364;2023-01-29T16:05:14;1.55;;;1.45;;
44098;SDS011;29762;50.086;14.364;2023-01-29T16:10:39;1.83;;;1.63;;
44098;SDS011;29762;50.086;14.364;2023-01-29T16:16:15;1.60;;;1.50;;
44098;SDS011;29762;50.086;14.364;2023-01-29T16:21:38;1.65;;;1.55;;
44098;SDS011;29762;50.086;14.364;2023-01-29T16:27:06;2.15;;;1.60;;
44098;SDS011;29762;50.086;14.364;2023-01-29T16:32:28;1.98;;;1.67;;
44098;SDS011;29762;50.086;14.364;2023-01-29T16:37:48;2.53;;;1.60;;
44098;SDS011;29762;50.086;14.364;2023-01-29T16:48:37;2.42;;;1.88;;
44098;SDS011;29762;50.086;14.364;2023-01-29T16:59:19;1.65;;;1.55;;
44098;SDS011;29762;50.086;14.364;2023-01-29T17:04:40;2.90;;;1.50;;
44098;SDS011;29762;50.086;14.364;2023-01-29T17:10:00;1.95;;;1.60;;
44098;SDS011;29762;50.086;14.364;2023-01-29T17:15:27;2.17;;;1.30;;
44098;SDS011;29762;50.086;14.364;2023-01-29T17:20:49;1.52;;;1.38;;
44098;SDS011;29762;50.086;14.364;2023-01-29T17:26:10;1.67;;;1.58;;
44098;SDS011;29762;50.086;14.364;2023-01-29T17:31:31;1.42;;;1.33;;
44098;SDS011;29762;50.086;14.364;2023-01-29T17:36:51;3.83;;;3.17;;
44098;SDS011;29762;50.086;14.364;2023-01-29T17:42:11;2.75;;;2.40;;
44098;SDS011;29762;50.086;14.364;2023-01-29T17:47:32;2.95;;;2.65;;
44098;SDS011;29762;50.086;14.364;2023-01-29T17:52:51;3.58;;;2.20;;
44098;SDS011;29762;50.086;14.364;2023-01-29T17:58:16;4.60;;;2.00;;
44098;SDS011;29762;50.086;14.364;2023-01-29T18:03:40;3.60;;;2.20;;
44098;SDS011;29762;50.086;14.364;2023-01-29T18:09:00;2.65;;;1.90;;
44098;SDS011;29762;50.086;14.364;2023-01-29T18:14:20;5.07;;;2.17;;
44098;SDS011;29762;50.086;14.364;2023-01-29T18:19:40;4.32;;;1.92;;
44098;SDS011;29762;50.086;14.364;2023-01-29T18:24:59;2.67;;;2.00;;
44098;SDS011;29762;50.086;14.364;2023-01-29T18:30:18;4.43;;;1.80;;
44098;SDS011;29762;50.086;14.364;2023-01-29T18:35:38;2.47;;;1.80;;
44098;SDS011;29762;50.086;14.364;2023-01-29T18:41:01;3.10;;;1.90;;
44098;SDS011;29762;50.086;14.364;2023-01-29T18:46:24;4.10;;;1.95;;
44098;SDS011;29762;50.086;14.364;2023-01-29T18:51:44;2.45;;;1.80;;
44098;SDS011;29762;50.086;14.364;2023-01-29T18:57:03;3.08;;;1.55;;
44098;SDS011;29762;50.086;14.364;2023-01-29T19:02:22;2.85;;;2.10;;
44098;SDS011;29762;50.086;14.364;2023-01-29T19:07:42;3.50;;;1.95;;
44098;SDS011;29762;50.086;14.364;2023-01-29T19:13:01;2.70;;;1.80;;
44098;SDS011;29762;50.086;14.364;2023-01-29T19:18:21;4.18;;;2.13;;
44098;SDS011;29762;50.086;14.364;2023-01-29T19:23:41;3.47;;;2.10;;
44098;SDS011;29762;50.086;14.364;2023-01-29T19:29:02;5.47;;;1.83;;
44098;SDS011;29762;50.086;14.364;2023-01-29T19:34:22;3.83;;;2.10;;
44098;SDS011;29762;50.086;14.364;2023-01-29T19:39:43;4.13;;;2.15;;
44098;SDS011;29762;50.086;14.364;2023-01-29T19:45:03;3.70;;;2.20;;
44098;SDS011;29762;50.086;14.364;2023-01-29T19:50:23;5.63;;;2.00;;
44098;SDS011;29762;50.086;14.364;2023-01-29T19:55:43;2.65;;;1.92;;
44098;SDS011;29762;50.086;14.364;2023-01-29T20:01:04;4.75;;;1.90;;
44098;SDS011;29762;50.086;14.364;2023-01-29T20:06:26;3.15;;;1.92;;
44098;SDS011;29762;50.086;14.364;2023-01-29T20:11:49;3.60;;;2.00;;
44098;SDS011;29762;50.086;14.364;2023-01-29T20:17:08;2.90;;;2.03;;
44098;SDS011;29762;50.086;14.364;2023-01-29T20:22:28;5.00;;;2.00;;
44098;SDS011;29762;50.086;14.364;2023-01-29T20:27:47;4.95;;;1.90;;
44098;SDS011;29762;50.086;14.364;2023-01-29T20:33:09;3.30;;;1.48;;
44098;SDS011;29762;50.086;14.364;2023-01-29T20:38:30;3.75;;;1.80;;
44098;SDS011;29762;50.086;14.364;2023-01-29T20:43:51;3.13;;;1.85;;
44098;SDS011;29762;50.086;14.364;2023-01-29T20:49:11;2.45;;;1.90;;
44098;SDS011;29762;50.086;14.364;2023-01-29T20:54:30;4.32;;;1.70;;
44098;SDS011;29762;50.086;14.364;2023-01-29T20:59:51;4.28;;;1.80;;
44098;SDS011;29762;50.086;14.364;2023-01-29T21:05:11;5.22;;;2.03;;
44098;SDS011;29762;50.086;14.364;2023-01-29T21:10:32;4.88;;;1.60;;
44098;SDS011;29762;50.086;14.364;2023-01-29T21:15:51;3.80;;;1.60;;
44098;SDS011;29762;50.086;14.364;2023-01-29T21:21:11;4.30;;;1.80;;
44098;SDS011;29762;50.086;14.364;2023-01-29T21:26:30;3.20;;;1.90;;
44098;SDS011;29762;50.086;14.364;2023-01-29T21:31:49;3.58;;;1.50;;
44098;SDS011;29762;50.086;14.364;2023-01-29T21:37:09;2.72;;;1.63;;
44098;SDS011;29762;50.086;14.364;2023-01-29T21:42:29;2.75;;;1.70;;
44098;SDS011;29762;50.086;14.364;2023-01-29T21:48:08;2.90;;;1.75;;
44098;SDS011;29762;50.086;14.364;2023-01-29T21:53:28;2.85;;;1.80;;
44098;SDS011;29762;50.086;14.364;2023-01-29T21:58:48;2.70;;;1.63;;
44098;SDS011;29762;50.086;14.364;2023-01-29T22:04:08;3.63;;;1.75;;
44098;SDS011;29762;50.086;14.364;2023-01-29T22:09:28;2.45;;;1.80;;
44098;SDS011;29762;50.086;14.364;2023-01-29T22:14:47;3.58;;;1.77;;
44098;SDS011;29762;50.086;14.364;2023-01-29T22:20:08;2.05;;;1.45;;
44098;SDS011;29762;50.086;14.364;2023-01-29T22:25:31;1.98;;;1.70;;
44098;SDS011;29762;50.086;14.364;2023-01-29T22:30:52;3.40;;;1.80;;
44098;SDS011;29762;50.086;14.364;2023-01-29T22:36:12;2.28;;;1.75;;
44098;SDS011;29762;50.086;14.364;2023-01-29T22:41:31;1.80;;;1.60;;
44098;SDS011;29762;50.086;14.364;2023-01-29T22:46:51;2.53;;;1.80;;
44098;SDS011;29762;50.086;14.364;2023-01-29T22:52:11;3.38;;;1.73;;
44098;SDS011;29762;50.086;14.364;2023-01-29T22:57:30;1.90;;;1.58;;
44098;SDS011;29762;50.086;14.364;2023-01-29T23:02:50;3.83;;;1.80;;
44098;SDS011;29762;50.086;14.364;2023-01-29T23:08:10;2.22;;;1.60;;
44098;SDS011;29762;50.086;14.364;2023-01-29T23:13:30;3.00;;;1.75;;
44098;SDS011;29762;50.086;14.364;2023-01-29T23:18:50;2.22;;;1.60;;
44098;SDS011;29762;50.086;14.364;2023-01-29T23:24:10;1.70;;;1.52;;
44098;SDS011;29762;50.086;14.364;2023-01-29T23:29:30;2.40;;;1.52;;
44098;SDS011;29762;50.086;14.364;2023-01-29T23:34:49;3.67;;;1.50;;
44098;SDS011;29762;50.086;14.364;2023-01-29T23:40:09;1.98;;;1.42;;
44098;SDS011;29762;50.086;14.364;2023-01-29T23:45:29;1.98;;;1.60;;
44098;SDS011;29762;50.086;14.364;2023-01-29T23:50:48;2.83;;;1.55;;
44098;SDS011;29762;50.086;14.364;2023-01-29T23:56:08;2.10;;;1.60;;
